Time;durP1;ratioP1;P1;durP2;ratioP2;P2;SDS_P1;SDS_P2;PMS_P1;PMS_P2;Temp;Humidity;BMP_temperature;BMP_pressure;BME280_temperature;BME280_humidity;BME280_pressure;Samples;Min_cycle;Max_cycle;Signal;HPM_P1;HPM_P2
2022/05/05 00:01:01;;;;;;;14.18;10.90;;;;;;;15.44;100.00;96444.34;5063129;28;20647;-58
2022/05/05 00:03:31;;;;;;;13.23;11.02;;;;;;;15.21;100.00;96454.94;5053156;28;20068;-58
2022/05/05 00:05:59;;;;;;;12.63;11.18;;;;;;;15.41;100.00;96442.84;5059059;28;20075;-59
2022/05/05 00:08:27;;;;;;;12.60;10.60;;;;;;;15.34;100.00;96441.09;5069907;28;20109;-56
2022/05/05 00:16:28;;;;;;;12.25;9.70;;;;;;;15.31;100.00;96439.63;5052583;28;20072;-58
2022/05/05 00:18:57;;;;;;;11.80;10.05;;;;;;;15.19;100.00;96448.97;5060629;28;20071;-59
2022/05/05 00:21:26;;;;;;;13.87;10.23;;;;;;;15.22;100.00;96450.47;5057872;28;20088;-55
2022/05/05 00:23:54;;;;;;;11.75;9.85;;;;;;;15.09;100.00;96445.69;5054441;28;20099;-58
2022/05/05 00:26:23;;;;;;;11.27;9.88;;;;;;;15.10;100.00;96448.16;5051763;28;20080;-58
2022/05/05 00:28:51;;;;;;;11.85;10.32;;;;;;;15.27;100.00;96448.09;5062460;28;20260;-55
2022/05/05 00:31:19;;;;;;;11.68;9.50;;;;;;;14.89;100.00;96447.94;5063076;28;20060;-58
2022/05/05 00:33:48;;;;;;;12.55;10.10;;;;;;;14.94;100.00;96443.78;5057277;28;20064;-58
2022/05/05 00:36:18;;;;;;;12.05;10.20;;;;;;;15.06;100.00;96443.38;5065765;28;20080;-59
2022/05/05 00:38:46;;;;;;;11.88;10.27;;;;;;;14.73;100.00;96446.19;5062798;28;20072;-58
2022/05/05 00:41:15;;;;;;;11.20;10.02;;;;;;;14.80;100.00;96446.31;5068202;28;20459;-58
2022/05/05 00:43:43;;;;;;;12.00;10.00;;;;;;;14.99;100.00;96445.09;5082281;28;20071;-57
2022/05/05 00:46:11;;;;;;;12.93;10.05;;;;;;;14.82;100.00;96439.00;5065645;28;20083;-58
2022/05/05 00:48:40;;;;;;;13.02;10.27;;;;;;;14.73;100.00;96446.19;5060875;28;20468;-58
2022/05/05 00:51:09;;;;;;;13.98;10.10;;;;;;;14.95;100.00;96448.06;5049212;28;20730;-57
2022/05/05 00:53:38;;;;;;;11.50;9.80;;;;;;;15.03;100.00;96443.72;5061102;28;20368;-56
2022/05/05 00:56:09;;;;;;;11.65;10.05;;;;;;;14.93;100.00;96444.78;5055965;28;20060;-58
2022/05/05 00:58:37;;;;;;;;;;;;;;;14.79;100.00;96449.97;5070424;28;20069;-56
2022/05/05 01:01:06;;;;;;;10.02;9.02;;;;;;;14.96;100.00;96447.06;5048595;28;20008;-58
2022/05/05 01:03:35;;;;;;;9.93;8.93;;;;;;;15.21;100.00;96436.34;5063199;28;20460;-58
2022/05/05 01:06:04;;;;;;;11.73;9.02;;;;;;;14.68;100.00;96451.97;5068858;28;20649;-58
2022/05/05 01:08:33;;;;;;;10.45;8.88;;;;;;;15.02;100.00;96450.88;5049685;28;20064;-58
2022/05/05 01:11:03;;;;;;;11.40;8.90;;;;;;;14.96;100.00;96444.41;5054865;28;20060;-59
2022/05/05 01:13:31;;;;;;;9.98;8.95;;;;;;;14.86;100.00;96448.28;5055972;28;20084;-56
2022/05/05 01:16:00;;;;;;;11.95;8.75;;;;;;;15.14;100.00;96446.00;5061841;28;20067;-56
2022/05/05 01:18:28;;;;;;;11.45;8.95;;;;;;;14.61;100.00;96442.22;5061148;28;20518;-58
2022/05/05 01:20:57;;;;;;;10.38;9.30;;;;;;;15.21;100.00;96439.00;5062021;28;20068;-58
2022/05/05 01:23:26;;;;;;;10.55;9.18;;;;;;;15.11;100.00;96433.91;5055390;28;20472;-59
2022/05/05 01:28:46;;;;;;;9.95;8.63;;;;;;;15.28;100.00;96441.78;5018981;28;21083;-58
2022/05/05 01:31:15;;;;;;;9.48;8.48;;;;;;;15.45;100.00;96432.75;5056956;28;20060;-58
2022/05/05 01:33:43;;;;;;;10.00;8.30;;;;;;;15.25;100.00;96436.84;5065066;28;20167;-58
2022/05/05 01:36:12;;;;;;;9.02;8.13;;;;;;;15.02;100.00;96439.44;5065905;28;20091;-56
2022/05/05 01:38:44;;;;;;;10.80;8.60;;;;;;;15.28;100.00;96444.44;5060653;28;20084;-58
2022/05/05 01:41:13;;;;;;;8.52;7.70;;;;;;;15.34;100.00;96441.09;5059242;28;20459;-57
2022/05/05 01:43:44;;;;;;;9.20;8.15;;;;;;;14.70;100.00;96443.88;5063520;28;20076;-58
2022/05/05 01:46:13;;;;;;;10.35;8.27;;;;;;;14.91;100.00;96443.28;5068572;28;20541;-58
2022/05/05 01:48:42;;;;;;;8.60;7.70;;;;;;;14.55;100.00;96446.38;5054428;28;20154;-58
2022/05/05 01:51:10;;;;;;;8.63;7.72;;;;;;;14.85;100.00;96438.66;5048238;28;20105;-59
2022/05/05 01:53:38;;;;;;;9.30;8.07;;;;;;;15.00;100.00;96442.25;5068200;28;20123;-58
2022/05/05 01:56:11;;;;;;;8.93;7.82;;;;;;;14.72;100.00;96434.72;5061670;28;20066;-57
2022/05/05 01:58:41;;;;;;;8.95;7.55;;;;;;;15.17;100.00;96440.34;5075748;28;20068;-56
2022/05/05 02:01:10;;;;;;;;;;;;;;;14.97;100.00;96442.59;5059286;28;20064;-59
2022/05/05 02:03:39;;;;;;;8.52;7.65;;;;;;;14.88;100.00;96448.94;5069191;28;19952;-57
2022/05/05 02:06:07;;;;;;;8.48;7.63;;;;;;;15.00;100.00;96452.03;5070746;28;20452;-57
2022/05/05 02:08:36;;;;;;;8.68;7.55;;;;;;;14.69;100.00;96458.13;5065317;28;20456;-55
2022/05/05 02:11:05;;;;;;;9.63;8.50;;;;;;;14.42;100.00;96456.69;5068343;28;20732;-59
2022/05/05 02:13:35;;;;;;;10.07;8.02;;;;;;;14.45;100.00;96458.97;5054027;28;20060;-59
2022/05/05 02:16:03;;;;;;;8.50;7.60;;;;;;;14.72;100.00;96457.78;5062695;28;20052;-60
2022/05/05 02:18:32;;;;;;;10.18;8.52;;;;;;;14.19;100.00;96456.53;5065013;28;20045;-59
2022/05/05 02:21:00;;;;;;;9.30;8.00;;;;;;;14.41;100.00;96458.47;5065265;28;20081;-58
2022/05/05 02:23:28;;;;;;;9.05;8.15;;;;;;;14.33;100.00;96452.38;5064655;28;20080;-58
2022/05/05 02:25:57;;;;;;;9.88;7.95;;;;;;;13.80;100.00;96448.41;5070407;28;20072;-58
2022/05/05 02:28:26;;;;;;;9.38;8.38;;;;;;;14.07;100.00;96445.41;5068049;28;20562;-58
2022/05/05 02:30:56;;;;;;;11.02;7.97;;;;;;;14.31;100.00;96449.88;5066846;28;20328;-59
2022/05/05 02:33:24;;;;;;;12.73;8.30;;;;;;;14.36;100.00;96449.38;5074791;28;20095;-59
2022/05/05 02:38:44;;;;;;;8.45;7.65;;;;;;;14.16;100.00;96451.56;5058933;28;20497;-56
2022/05/05 02:41:12;;;;;;;8.18;7.38;;;;;;;14.23;100.00;96450.72;5063140;28;20076;-56
2022/05/05 02:43:40;;;;;;;9.18;8.07;;;;;;;13.91;100.00;96454.22;5057973;28;20088;-58
2022/05/05 02:46:10;;;;;;;9.27;7.47;;;;;;;14.09;100.00;96456.69;5077453;28;20685;-58
2022/05/05 02:48:38;;;;;;;9.37;7.43;;;;;;;13.81;100.00;96456.19;5070254;28;20060;-58
2022/05/05 02:51:06;;;;;;;7.75;7.05;;;;;;;13.71;100.00;96468.78;5061822;28;20522;-59
2022/05/05 02:56:21;;;;;;;8.85;7.55;;;;;;;13.54;100.00;96466.09;5069456;28;20072;-57
2022/05/05 02:58:49;;;;;;;8.50;7.60;;;;;;;13.24;100.00;96471.97;5068360;28;20536;-57
2022/05/05 03:01:19;;;;;;;8.93;7.05;;;;;;;13.21;100.00;96465.19;5065257;28;20060;-59
2022/05/05 03:03:47;;;;;;;9.90;7.73;;;;;;;13.50;100.00;96469.25;5061287;28;20076;-57
2022/05/05 03:06:16;;;;;;;9.57;7.80;;;;;;;13.70;100.00;96469.78;5055828;28;20088;-54
2022/05/05 03:08:44;;;;;;;8.98;8.07;;;;;;;13.89;100.00;96461.50;5068477;28;20091;-56
2022/05/05 03:11:13;;;;;;;11.25;7.47;;;;;;;13.97;100.00;96453.56;5064439;28;20068;-58
2022/05/05 03:13:41;;;;;;;11.20;8.13;;;;;;;13.71;100.00;96466.13;5051444;28;20068;-56
2022/05/05 03:16:09;;;;;;;10.13;7.53;;;;;;;14.06;100.00;96461.50;5059988;28;20060;-58
2022/05/05 03:18:40;;;;;;;9.50;8.20;;;;;;;14.07;100.00;96463.97;5067614;28;20467;-55
2022/05/05 03:21:09;;;;;;;8.63;7.47;;;;;;;13.96;100.00;96469.63;5059240;28;20076;-57
2022/05/05 03:23:37;;;;;;;8.05;7.13;;;;;;;13.99;100.00;96466.63;5066197;28;20468;-58
2022/05/05 03:26:05;;;;;;;8.90;7.25;;;;;;;13.64;100.00;96468.59;5067115;28;20093;-58
2022/05/05 03:28:34;;;;;;;11.23;7.40;;;;;;;13.98;100.00;96472.94;5071691;28;20064;-60
2022/05/05 03:31:02;;;;;;;8.23;7.38;;;;;;;14.18;100.00;96465.50;5060298;28;20064;-56
2022/05/05 03:33:32;;;;;;;11.43;7.35;;;;;;;13.87;100.00;96466.16;5063102;28;20060;-58
2022/05/05 03:36:01;;;;;;;8.25;7.18;;;;;;;13.74;100.00;96473.75;5067457;28;20785;-57
2022/05/05 03:38:30;;;;;;;8.05;7.25;;;;;;;14.10;100.00;96479.56;5065557;28;20072;-58
2022/05/05 03:40:58;;;;;;;8.07;7.05;;;;;;;14.17;100.00;96472.59;5064769;28;20056;-56
2022/05/05 03:43:26;;;;;;;9.50;7.05;;;;;;;13.80;100.00;96481.06;5065720;28;20076;-57
2022/05/05 03:45:54;;;;;;;8.40;7.60;;;;;;;14.00;100.00;96469.16;5059227;28;20515;-58
2022/05/05 03:48:23;;;;;;;8.43;6.95;;;;;;;14.31;100.00;96478.22;5063603;28;20080;-58
2022/05/05 03:50:51;;;;;;;8.13;6.90;;;;;;;14.01;100.00;96485.88;5059696;28;20084;-58
2022/05/05 03:53:20;;;;;;;11.15;7.43;;;;;;;13.82;100.00;96479.06;5062725;28;20056;-58
2022/05/05 03:55:49;;;;;;;8.10;7.30;;;;;;;13.80;100.00;96483.72;5069804;28;20056;-58
2022/05/05 03:58:17;;;;;;;8.20;7.32;;;;;;;13.75;100.00;96480.69;5063347;28;20566;-57
2022/05/05 04:00:46;;;;;;;7.97;7.18;;;;;;;13.48;100.00;96487.09;5066255;28;20075;-58
2022/05/05 04:03:32;;;;;;;7.85;7.03;;;;;;;13.62;100.00;96486.47;5069365;28;20131;-58
2022/05/05 04:06:02;;;;;;;9.52;7.25;;;;;;;13.46;100.00;96487.28;5066608;28;20072;-57
2022/05/05 04:08:32;;;;;;;8.10;7.30;;;;;;;13.45;100.00;96487.44;5049834;28;20487;-57
2022/05/05 04:11:01;;;;;;;8.02;7.22;;;;;;;14.04;100.00;96490.84;5072832;28;20462;-57
2022/05/05 04:13:29;;;;;;;7.88;7.03;;;;;;;13.60;100.00;96487.66;5060986;28;20471;-57
2022/05/05 04:15:57;;;;;;;8.68;6.97;;;;;;;13.36;100.00;96478.66;5052185;28;20191;-58
2022/05/05 04:18:26;;;;;;;7.50;6.80;;;;;;;13.48;100.00;96485.28;5050141;28;20080;-55
2022/05/05 04:20:54;;;;;;;8.30;7.05;;;;;;;13.29;100.00;96475.00;5063696;28;20084;-56
2022/05/05 04:23:22;;;;;;;8.55;7.55;;;;;;;13.41;100.00;96471.03;5065156;28;20071;-58
2022/05/05 04:26:10;;;;;;;8.60;6.93;;;;;;;13.43;100.00;96468.25;5052112;28;20476;-57
2022/05/05 04:28:38;;;;;;;;;;;;;;;13.16;100.00;96471.94;5059716;28;20079;-57
2022/05/05 04:31:06;;;;;;;9.10;7.43;;;;;;;13.43;100.00;96474.38;5066143;28;20337;-59
2022/05/05 04:33:35;;;;;;;8.57;7.20;;;;;;;13.76;100.00;96469.97;5063324;28;20068;-56
2022/05/05 04:36:03;;;;;;;9.18;6.93;;;;;;;14.30;100.00;96477.41;5058061;28;20084;-55
2022/05/05 04:38:32;;;;;;;9.80;8.80;;;;;;;15.53;100.00;96464.56;5059028;28;20045;-58
2022/05/05 04:41:00;;;;;;;8.95;8.10;;;;;;;16.77;100.00;96468.75;5065600;28;20068;-56
2022/05/05 04:43:30;;;;;;;8.40;7.60;;;;;;;16.60;100.00;96475.22;5062516;28;20474;-59
2022/05/05 04:45:58;;;;;;;6.50;5.90;;;;;;;16.74;100.00;96478.91;5061176;28;20068;-55
2022/05/05 04:48:26;;;;;;;7.22;5.90;;;;;;;16.51;100.00;96474.47;5050370;28;20510;-59
2022/05/05 04:50:55;;;;;;;6.38;5.50;;;;;;;16.44;100.00;96488.69;5053320;28;20075;-56
2022/05/05 04:53:23;;;;;;;7.00;5.72;;;;;;;16.29;100.00;96494.78;5068616;28;20064;-60
2022/05/05 04:55:51;;;;;;;6.72;5.85;;;;;;;15.42;100.00;96499.53;5058804;28;20519;-59
2022/05/05 04:58:24;;;;;;;7.30;6.53;;;;;;;14.99;100.00;96512.28;5071520;28;20072;-58
2022/05/05 05:00:54;;;;;;;8.52;6.40;;;;;;;15.48;100.00;96504.13;5062477;28;20056;-60
2022/05/05 05:03:35;;;;;;;7.43;6.07;;;;;;;15.37;100.00;96510.66;5062372;28;20103;-59
2022/05/05 05:06:05;;;;;;;8.63;6.03;;;;;;;15.62;100.00;96505.19;5058890;28;20048;-58
2022/05/05 05:08:34;;;;;;;6.72;6.13;;;;;;;15.32;100.00;96499.72;5055718;28;20071;-57
2022/05/05 05:11:02;;;;;;;8.10;5.80;;;;;;;15.89;100.00;96499.41;5061393;28;20072;-58
2022/05/05 05:13:31;;;;;;;6.45;5.82;;;;;;;15.58;100.00;96509.22;5057490;28;20049;-56
2022/05/05 05:16:00;;;;;;;6.80;6.18;;;;;;;15.37;100.00;96508.00;5063252;28;20056;-60
2022/05/05 05:18:29;;;;;;;8.30;6.40;;;;;;;15.56;100.00;96513.91;5067910;28;20094;-59
2022/05/05 05:20:57;;;;;;;7.18;6.47;;;;;;;15.05;100.00;96516.09;5055611;28;20517;-60
2022/05/05 05:23:25;;;;;;;7.25;5.60;;;;;;;15.42;100.00;96515.47;5051973;28;20562;-58
2022/05/05 05:25:53;;;;;;;6.28;5.60;;;;;;;15.93;100.00;96505.19;5069268;28;20064;-60
2022/05/05 05:28:22;;;;;;;6.15;5.53;;;;;;;15.50;100.00;96518.06;5061332;28;20088;-56
2022/05/05 05:30:50;;;;;;;6.53;5.68;;;;;;;15.87;100.00;96508.59;5051364;28;20065;-59
2022/05/05 05:33:20;;;;;;;6.60;6.00;;;;;;;16.17;100.00;96512.19;5058187;28;20476;-58
2022/05/05 05:35:48;;;;;;;7.47;6.10;;;;;;;16.22;100.00;96507.16;5068230;28;20083;-59
2022/05/05 05:38:19;;;;;;;9.18;6.68;;;;;;;16.13;100.00;96506.38;5063044;28;20072;-59
2022/05/05 05:40:47;;;;;;;;;;;;;;;16.21;100.00;96502.84;5051261;28;20596;-59
2022/05/05 05:43:16;;;;;;;7.30;6.05;;;;;;;16.85;100.00;96503.25;5055609;28;19983;-57
2022/05/05 05:45:44;;;;;;;6.93;6.13;;;;;;;17.04;100.00;96501.09;5065916;28;20060;-57
2022/05/05 05:48:13;;;;;;;7.60;6.80;;;;;;;16.82;100.00;96505.47;5061529;28;20080;-58
2022/05/05 05:50:42;;;;;;;8.68;6.20;;;;;;;16.85;100.00;96515.75;5054590;28;20086;-59
2022/05/05 05:53:11;;;;;;;6.97;6.28;;;;;;;16.48;100.00;96513.91;5056808;28;20136;-58
2022/05/05 05:55:39;;;;;;;7.32;6.13;;;;;;;16.05;100.00;96527.75;5064615;28;20083;-59
2022/05/05 05:58:08;;;;;;;8.93;6.78;;;;;;;16.12;100.00;96523.38;5063845;28;20037;-56
2022/05/05 06:00:38;;;;;;;7.75;6.22;;;;;;;16.51;100.00;96525.03;5063619;28;20069;-59
2022/05/05 06:05:54;;;;;;;7.00;6.32;;;;;;;16.45;100.00;96528.44;5057792;28;20174;-58
2022/05/05 06:08:22;;;;;;;6.83;6.10;;;;;;;16.58;100.00;96520.63;5060281;28;20064;-59
2022/05/05 06:10:51;;;;;;;7.32;6.40;;;;;;;16.66;100.00;96524.25;5054319;28;20056;-56
2022/05/05 06:13:23;;;;;;;7.35;6.40;;;;;;;16.74;100.00;96522.38;5067339;28;20434;-58
2022/05/05 06:15:51;;;;;;;8.55;6.57;;;;;;;16.31;100.00;96514.09;5066394;28;20534;-59
2022/05/05 06:18:20;;;;;;;8.73;6.90;;;;;;;16.83;100.00;96518.63;5065328;28;20364;-58
2022/05/05 06:20:48;;;;;;;7.05;6.20;;;;;;;16.71;100.00;96520.03;5062635;28;20091;-59
2022/05/05 06:23:18;;;;;;;7.50;6.80;;;;;;;17.42;100.00;96516.97;5056200;28;20056;-59
2022/05/05 06:25:46;;;;;;;7.47;6.70;;;;;;;17.07;100.00;96522.88;5054374;28;20069;-59
2022/05/05 06:28:14;;;;;;;7.68;6.95;;;;;;;16.59;100.00;96534.81;5074444;28;20491;-53
2022/05/05 06:30:42;;;;;;;6.68;5.97;;;;;;;17.34;100.00;96539.19;5067568;28;20091;-57
2022/05/05 06:33:11;;;;;;;11.93;6.43;;;;;;;16.64;100.00;96543.06;5051841;28;20080;-53
2022/05/05 06:35:39;;;;;;;10.23;6.60;;;;;;;17.38;100.00;96528.97;5049219;28;20655;-58
2022/05/05 06:38:08;;;;;;;7.30;6.60;;;;;;;16.89;100.00;96543.69;5061806;28;20071;-57
2022/05/05 06:40:37;;;;;;;8.23;7.03;;;;;;;17.87;100.00;96534.53;5054519;28;20107;-59
2022/05/05 06:43:06;;;;;;;8.10;7.03;;;;;;;17.23;100.00;96537.81;5061039;28;20067;-56
2022/05/05 06:45:34;;;;;;;8.38;7.15;;;;;;;17.35;100.00;96540.03;5056532;28;20468;-59
2022/05/05 06:48:02;;;;;;;11.02;7.38;;;;;;;17.84;100.00;96540.25;5058900;28;20064;-59
2022/05/05 06:50:31;;;;;;;8.45;6.85;;;;;;;17.18;100.00;96539.41;5065153;28;20080;-59
2022/05/05 06:53:00;;;;;;;8.13;7.32;;;;;;;17.32;100.00;96531.41;5053536;28;20083;-59
2022/05/05 06:55:28;;;;;;;8.65;7.80;;;;;;;18.35;100.00;96526.81;5061707;28;20064;-58
2022/05/05 06:57:58;;;;;;;9.05;8.15;;;;;;;19.16;100.00;96526.41;5062678;28;20656;-59
2022/05/05 07:01:51;;;;;;;9.15;8.25;;;;;;;19.39;100.00;96523.47;5070545;28;20079;-60
2022/05/05 07:03:16;;;;;;;9.43;8.40;;;;;;;19.36;100.00;96524.66;5057855;28;20111;-59
2022/05/05 07:05:44;;;;;;;10.38;8.18;;;;;;;18.42;100.00;96521.53;5057621;28;20064;-60
2022/05/05 07:08:12;;;;;;;10.13;8.38;;;;;;;19.37;100.00;96520.13;5065520;28;20473;-56
2022/05/05 07:10:52;;;;;;;11.23;9.70;;;;;;;19.22;100.00;96525.63;5078873;28;20091;-57
2022/05/05 07:13:22;;;;;;;10.95;8.85;;;;;;;19.02;100.00;96522.81;5063988;28;20059;-59
2022/05/05 07:15:52;;;;;;;11.65;8.85;;;;;;;19.27;100.00;96528.56;5057118;28;20518;-58
2022/05/05 07:18:20;;;;;;;9.75;8.75;;;;;;;19.01;100.00;96533.72;5072671;28;20505;-58
2022/05/05 07:20:50;;;;;;;11.77;9.30;;;;;;;19.79;100.00;96537.03;5061286;28;20090;-58
2022/05/05 07:23:18;;;;;;;10.18;9.18;;;;;;;19.20;100.00;96546.38;5057553;28;20073;-54
2022/05/05 07:25:47;;;;;;;11.48;9.48;;;;;;;19.04;100.00;96555.53;5054557;28;20071;-57
2022/05/05 07:28:16;;;;;;;13.48;9.45;;;;;;;19.14;100.00;96564.03;5077438;28;20064;-60
2022/05/05 07:30:45;;;;;;;9.75;8.75;;;;;;;19.31;100.00;96555.72;5062494;28;20070;-59
2022/05/05 07:33:14;;;;;;;11.07;9.32;;;;;;;18.42;100.00;96565.09;5069043;28;20052;-59
2022/05/05 07:35:42;;;;;;;10.18;9.18;;;;;;;18.38;100.00;96568.34;5060079;28;20080;-60
2022/05/05 07:38:10;;;;;;;10.05;9.05;;;;;;;18.17;100.00;96572.66;5058470;28;20067;-59
2022/05/05 07:40:39;;;;;;;10.65;9.55;;;;;;;17.86;100.00;96574.75;5067869;28;20073;-58
2022/05/05 07:43:08;;;;;;;11.07;9.75;;;;;;;17.95;100.00;96569.09;5071568;28;20474;-58
2022/05/05 07:45:36;;;;;;;10.70;9.55;;;;;;;18.85;100.00;96570.41;5068571;28;20113;-59
2022/05/05 07:48:07;;;;;;;11.75;10.07;;;;;;;18.85;100.00;96578.41;5062251;28;20081;-58
2022/05/05 07:50:35;;;;;;;;;;;;;;;19.14;100.00;96574.75;5054828;28;20616;-59
2022/05/05 07:53:03;;;;;;;13.38;10.18;;;;;;;19.40;100.00;96574.06;5067626;28;19956;-59
2022/05/05 07:55:32;;;;;;;11.25;10.05;;;;;;;19.97;100.00;96574.78;5058290;28;20071;-56
2022/05/05 07:58:00;;;;;;;11.77;10.43;;;;;;;19.27;100.00;96575.81;5074774;28;20075;-59
2022/05/05 08:00:28;;;;;;;11.70;10.55;;;;;;;19.72;100.00;96574.47;5062193;28;20088;-59
2022/05/05 08:02:57;;;;;;;11.55;10.07;;;;;;;20.43;100.00;96573.22;5065630;28;20110;-58
2022/05/05 08:05:27;;;;;;;11.60;10.45;;;;;;;19.79;100.00;96574.50;5062533;28;20056;-58
2022/05/05 08:07:55;;;;;;;;;;;;;;;19.66;100.00;96577.94;5069790;28;20068;-59
2022/05/05 08:10:27;;;;;;;11.70;10.50;;;;;;;19.68;100.00;96587.44;5050119;28;19928;-59
2022/05/05 08:12:56;;;;;;;11.48;10.32;;;;;;;20.09;100.00;96585.72;5071960;28;20066;-60
2022/05/05 08:15:25;;;;;;;11.65;10.45;;;;;;;20.83;100.00;96584.84;5060217;28;20093;-56
2022/05/05 08:17:53;;;;;;;11.48;10.05;;;;;;;21.72;100.00;96578.94;5060046;28;20472;-59
2022/05/05 08:20:22;;;;;;;12.05;10.23;;;;;;;21.87;100.00;96575.19;5062809;28;20068;-60
2022/05/05 08:22:51;;;;;;;12.07;10.88;;;;;;;21.73;100.00;96585.97;5066011;28;20074;-59
2022/05/05 08:30:51;;;;;;;10.60;9.50;;;;;;;22.90;100.00;96575.81;5061016;28;20061;-59
2022/05/05 08:33:20;;;;;;;11.27;9.80;;;;;;;23.29;100.00;96578.38;5055712;28;20081;-53
2022/05/05 08:35:48;;;;;;;11.27;10.13;;;;;;;23.45;100.00;96572.44;5055832;28;20072;-60
2022/05/05 08:38:18;;;;;;;11.45;10.32;;;;;;;22.33;100.00;96579.50;5065258;28;20068;-58
2022/05/05 08:40:47;;;;;;;10.73;9.63;;;;;;;21.72;100.00;96586.19;5049744;28;20087;-59
2022/05/05 08:43:16;;;;;;;11.38;9.73;;;;;;;21.51;100.00;96584.59;5068491;28;20076;-58
2022/05/05 08:45:45;;;;;;;11.50;10.40;;;;;;;21.15;100.00;96585.03;5055401;28;20087;-60
2022/05/05 08:48:13;;;;;;;10.73;9.73;;;;;;;21.95;100.00;96578.44;5062271;28;20084;-57
2022/05/05 08:50:44;;;;;;;11.02;9.73;;;;;;;21.24;100.00;96586.47;5063015;28;20545;-56
2022/05/05 08:53:14;;;;;;;11.43;10.32;;;;;;;21.07;100.00;96591.44;5050151;28;20061;-57
2022/05/05 08:55:44;;;;;;;10.60;9.60;;;;;;;20.89;100.00;96596.59;5062465;28;20064;-57
2022/05/05 08:58:13;;;;;;;11.75;10.50;;;;;;;22.45;100.00;96586.69;5074510;28;20063;-59
2022/05/05 09:00:41;;;;;;;12.25;10.57;;;;;;;22.52;100.00;96590.16;5072948;28;20083;-56
2022/05/05 09:03:10;;;;;;;11.38;10.18;;;;;;;23.09;100.00;96589.31;5063456;28;20080;-57
2022/05/05 09:05:51;;;;;;;10.02;9.07;;;;;;;23.23;97.90;96585.50;5064653;28;20178;-59
2022/05/05 09:08:31;;;;;;;10.88;9.82;;;;;;;23.19;100.00;96595.88;5065967;28;20448;-58
2022/05/05 09:11:02;;;;;;;10.18;8.93;;;;;;;23.10;100.00;96607.13;5069338;28;20751;-59
2022/05/05 09:13:31;;;;;;;9.20;8.35;;;;;;;23.93;78.39;96596.78;5063724;28;20725;-59
2022/05/05 09:16:00;;;;;;;9.82;8.77;;;;;;;23.57;91.14;96597.59;5061812;28;20056;-59
2022/05/05 09:18:30;;;;;;;9.88;8.88;;;;;;;23.71;89.58;96592.91;5055830;28;20700;-59
2022/05/05 09:21:00;;;;;;;7.25;6.55;;;;;;;23.68;80.36;96583.41;5055219;28;20084;-61
2022/05/05 09:23:31;;;;;;;9.88;8.88;;;;;;;23.12;82.99;96587.00;5067840;28;20139;-51
2022/05/05 09:26:02;;;;;;;9.90;8.90;;;;;;;24.04;73.69;96581.72;5060165;28;20575;-58
2022/05/05 09:28:31;;;;;;;10.75;9.57;;;;;;;24.77;64.18;96587.97;5071178;28;20071;-57
2022/05/05 09:31:05;;;;;;;13.82;10.07;;;;;;;24.68;67.34;96589.38;5063647;28;20064;-60
2022/05/05 09:33:42;;;;;;;10.43;9.05;;;;;;;25.14;68.31;96595.94;5055464;28;20440;-60
2022/05/05 09:36:11;;;;;;;9.45;8.55;;;;;;;25.24;68.35;96591.59;5052517;28;20084;-60
2022/05/05 09:38:51;;;;;;;9.90;8.95;;;;;;;25.64;62.76;96604.41;5056029;28;20083;-60
2022/05/05 09:41:22;;;;;;;10.43;9.32;;;;;;;25.66;57.22;96598.75;5059360;28;20068;-59
2022/05/05 09:43:51;;;;;;;10.63;9.63;;;;;;;25.52;66.27;96596.28;5056399;28;20064;-59
2022/05/05 09:46:36;;;;;;;10.25;9.25;;;;;;;25.62;60.91;96595.69;5049525;28;20064;-59
2022/05/05 09:49:08;;;;;;;10.63;9.30;;;;;;;24.75;58.74;96595.50;5074634;28;20461;-59
2022/05/05 09:51:43;;;;;;;10.32;9.32;;;;;;;25.35;67.84;96600.75;5059451;28;20067;-59
2022/05/05 09:59:49;;;;;;;9.95;9.05;;;;;;;25.93;61.13;96593.69;5065154;28;20416;-57
2022/05/05 10:05:13;;;;;;;9.07;7.75;;;;;;;26.37;48.52;96585.91;5059867;28;20071;-60
2022/05/05 10:07:44;;;;;;;9.32;7.68;;;;;;;25.63;57.49;96600.03;5062201;28;20091;-58
2022/05/05 10:10:16;;;;;;;8.50;7.68;;;;;;;25.43;51.83;96596.88;5061779;28;20052;-59
2022/05/05 10:12:46;;;;;;;8.25;7.35;;;;;;;25.71;51.35;96602.38;5061236;28;20582;-61
2022/05/05 10:15:16;;;;;;;10.60;8.15;;;;;;;25.16;53.36;96594.66;5065969;28;20123;-59
2022/05/05 10:17:45;;;;;;;8.20;7.10;;;;;;;25.14;49.60;96596.75;5064433;28;20526;-58
2022/05/05 10:20:14;;;;;;;9.68;8.77;;;;;;;25.16;58.17;96583.03;5051913;28;20471;-60
2022/05/05 10:22:52;;;;;;;10.88;9.02;;;;;;;25.22;56.78;96576.69;5056676;28;20060;-58
2022/05/05 10:25:26;;;;;;;10.90;8.10;;;;;;;25.75;63.27;96584.63;5055900;28;20622;-60
2022/05/05 10:27:56;;;;;;;10.25;9.23;;;;;;;26.34;56.16;96573.69;5069000;28;20065;-59
2022/05/05 10:30:34;;;;;;;9.15;7.85;;;;;;;25.31;55.80;96578.00;5068702;28;20140;-60
2022/05/05 10:33:03;;;;;;;10.27;8.55;;;;;;;25.43;56.65;96576.13;5054451;28;20085;-60
2022/05/05 10:35:39;;;;;;;10.67;8.80;;;;;;;24.99;62.51;96567.50;5052034;28;20095;-59
2022/05/05 10:38:41;;;;;;;12.73;10.10;;;;;;;24.30;73.10;96568.97;5066463;28;20699;-56
2022/05/05 10:41:37;;;;;;;11.20;10.10;;;;;;;24.74;67.17;96562.31;5069361;28;20083;-59
2022/05/05 10:44:26;;;;;;;10.93;9.93;;;;;;;24.45;71.02;96566.69;5064036;28;20068;-59
2022/05/05 10:46:56;;;;;;;10.93;9.93;;;;;;;24.54;63.95;96556.41;5062083;28;20588;-59
2022/05/05 10:49:47;;;;;;;11.30;10.05;;;;;;;24.10;69.33;96559.25;5059514;28;20069;-59
2022/05/05 10:52:29;;;;;;;12.18;9.68;;;;;;;24.07;67.32;96557.03;5051877;28;20065;-58
2022/05/05 10:54:57;;;;;;;11.25;10.15;;;;;;;23.86;67.77;96561.00;5070388;28;20067;-59
2022/05/05 10:57:42;;;;;;;10.43;9.25;;;;;;;25.03;60.85;96562.47;5070027;28;20079;-59
2022/05/05 11:00:13;;;;;;;10.13;9.13;;;;;;;24.94;60.62;96563.84;5076167;28;20087;-59
2022/05/05 11:03:14;;;;;;;10.90;9.80;;;;;;;24.02;63.99;96559.59;5077918;28;20099;-57
2022/05/05 11:05:44;;;;;;;10.95;9.85;;;;;;;23.91;63.67;96557.63;5058530;28;20094;-59
2022/05/05 11:08:31;;;;;;;11.65;10.20;;;;;;;23.51;69.29;96560.78;5060721;28;20060;-57
2022/05/05 11:13:45;;;;;;;11.23;9.98;;;;;;;24.62;62.02;96547.97;5069815;28;20067;-59
2022/05/05 11:22:17;;;;;;;11.18;9.98;;;;;;;25.07;54.44;96550.97;5059322;28;20064;-56
2022/05/05 11:24:46;;;;;;;10.98;9.98;;;;;;;25.36;60.25;96550.28;5061153;28;20068;-59
2022/05/05 11:27:16;;;;;;;12.23;10.93;;;;;;;25.25;60.79;96549.22;5063151;28;20076;-58
2022/05/05 11:29:49;;;;;;;13.98;12.57;;;;;;;24.15;66.17;96547.78;5068380;28;20073;-59
2022/05/05 11:32:20;;;;;;;12.05;10.70;;;;;;;25.81;56.49;96550.50;5057654;28;20072;-59
2022/05/05 11:34:49;;;;;;;12.80;11.50;;;;;;;25.42;56.14;96544.75;5056193;28;20068;-61
2022/05/05 11:37:18;;;;;;;12.90;11.60;;;;;;;25.60;54.47;96541.09;5057608;28;20064;-60
2022/05/05 11:39:47;;;;;;;12.35;11.05;;;;;;;24.86;60.42;96538.88;5064069;28;20060;-59
2022/05/05 11:42:16;;;;;;;14.30;12.35;;;;;;;24.30;69.91;96533.91;5060168;28;20088;-59
2022/05/05 11:44:44;;;;;;;13.38;12.18;;;;;;;24.46;65.48;96529.75;5057144;28;20085;-60
2022/05/05 11:47:14;;;;;;;12.00;10.82;;;;;;;24.84;56.42;96532.91;5050382;28;20488;-59
2022/05/05 11:49:46;;;;;;;11.30;10.10;;;;;;;25.41;55.46;96523.41;5060683;28;20072;-59
2022/05/05 11:52:16;;;;;;;10.98;9.60;;;;;;;24.36;56.05;96524.88;5073808;28;20477;-59
2022/05/05 11:54:48;;;;;;;11.63;10.52;;;;;;;24.19;57.17;96516.66;5061788;28;20078;-58
2022/05/05 11:57:32;;;;;;;10.60;9.52;;;;;;;24.82;53.45;96516.09;5060018;28;20470;-59
2022/05/05 12:02:46;;;;;;;11.43;10.32;;;;;;;23.34;68.02;96498.66;5063236;28;20635;-58
2022/05/05 12:05:20;;;;;;;12.07;10.65;;;;;;;24.44;59.02;96502.22;5058469;28;20072;-58
2022/05/05 12:07:50;;;;;;;12.07;10.88;;;;;;;24.67;57.00;96501.41;5050997;28;20527;-60
2022/05/05 12:10:19;;;;;;;9.63;8.63;;;;;;;25.36;55.04;96496.28;5056333;28;20057;-58
2022/05/05 12:12:49;;;;;;;12.25;10.43;;;;;;;24.86;57.10;96497.59;5068395;28;20044;-59
2022/05/05 12:15:20;;;;;;;11.85;10.55;;;;;;;24.87;53.06;96499.22;5052175;28;20532;-59
2022/05/05 12:17:52;;;;;;;10.02;9.02;;;;;;;24.20;55.05;96488.66;5060794;28;20079;-59